createdAt,value
2023-01-10T00:00:56.387Z,2.42
2023-01-10T00:03:24.308Z,5.97
2023-01-10T00:05:51.268Z,2.58
2023-01-10T00:08:18.466Z,4.80
2023-01-10T00:10:45.268Z,2.72
2023-01-10T00:13:26.290Z,8.48
2023-01-10T00:15:55.185Z,2.95
2023-01-10T00:18:24.005Z,2.28
2023-01-10T00:20:50.793Z,2.58
2023-01-10T00:23:20.578Z,4.85
2023-01-10T00:25:47.509Z,2.17
2023-01-10T00:28:20.559Z,3.92
2023-01-10T00:31:01.861Z,3.33
2023-01-10T00:33:36.668Z,5.43
2023-01-10T00:36:07.408Z,3.35
2023-01-10T00:38:35.735Z,3.22
2023-01-10T00:41:25.316Z,3.30
2023-01-10T00:43:58.287Z,4.00
2023-01-10T00:48:52.856Z,4.20
2023-01-10T00:51:19.713Z,3.08
2023-01-10T00:53:46.954Z,3.03
2023-01-10T00:56:13.929Z,2.53
2023-01-10T00:58:40.766Z,4.07
2023-01-10T01:01:07.810Z,3.45
2023-01-10T01:03:34.719Z,6.13
2023-01-10T01:06:06.620Z,3.15
2023-01-10T01:08:34.942Z,4.07
2023-01-10T01:11:02.203Z,3.00
2023-01-10T01:13:29.045Z,3.65
2023-01-10T01:15:59.484Z,4.55
2023-01-10T01:18:27.663Z,3.00
2023-01-10T01:20:57.995Z,3.40
2023-01-10T01:23:26.068Z,3.35
2023-01-10T01:25:54.497Z,6.38
2023-01-10T01:28:24.878Z,5.32
2023-01-10T01:30:52.282Z,3.65
2023-01-10T01:33:20.569Z,10.98
2023-01-10T01:35:50.569Z,5.72
2023-01-10T01:38:18.591Z,3.47
2023-01-10T01:40:47.495Z,3.28
2023-01-10T01:43:32.140Z,4.47
2023-01-10T01:46:03.016Z,3.17
2023-01-10T01:48:39.488Z,3.08
2023-01-10T01:51:25.358Z,3.33
2023-01-10T01:54:04.005Z,2.63
2023-01-10T01:56:37.925Z,3.50
2023-01-10T01:59:28.877Z,4.20
2023-01-10T02:02:03.813Z,2.22
2023-01-10T02:05:09.544Z,4.47
2023-01-10T02:07:40.201Z,2.60
2023-01-10T02:10:13.840Z,3.05
2023-01-10T02:12:40.771Z,3.38
2023-01-10T02:15:08.400Z,3.00
2023-01-10T02:17:35.156Z,6.32
2023-01-10T02:20:07.521Z,4.55
2023-01-10T02:23:16.249Z,2.95
2023-01-10T02:26:20.754Z,3.53
2023-01-10T02:29:40.512Z,4.97
2023-01-10T02:33:04.554Z,5.15
2023-01-10T02:35:35.782Z,3.58
2023-01-10T02:38:08.148Z,4.18
2023-01-10T02:41:13.208Z,3.58
2023-01-10T02:43:51.123Z,3.30
2023-01-10T02:46:30.014Z,2.70
2023-01-10T02:48:57.281Z,2.80
2023-01-10T02:51:30.101Z,3.25
2023-01-10T02:54:02.828Z,5.25
2023-01-10T02:56:46.340Z,3.70
2023-01-10T02:59:59.851Z,5.32
2023-01-10T03:03:01.930Z,3.75
2023-01-10T03:06:31.706Z,4.22
2023-01-10T03:09:18.196Z,5.47
2023-01-10T03:11:48.120Z,3.10
2023-01-10T03:14:28.328Z,5.18
2023-01-10T03:17:08.080Z,3.58
2023-01-10T03:19:42.032Z,6.05
2023-01-10T03:22:11.227Z,3.17
2023-01-10T03:24:43.720Z,3.33
2023-01-10T03:27:33.311Z,4.18
2023-01-10T03:30:24.960Z,5.13
2023-01-10T03:32:53.340Z,3.53
2023-01-10T03:35:23.797Z,5.38
2023-01-10T03:38:13.810Z,4.00
2023-01-10T03:40:49.820Z,6.20
2023-01-10T03:43:50.107Z,7.10
2023-01-10T03:46:36.477Z,2.90
2023-01-10T03:49:07.348Z,5.68
2023-01-10T03:51:34.929Z,8.85
2023-01-10T03:54:04.067Z,6.22
2023-01-10T03:56:31.118Z,5.20
2023-01-10T03:58:59.038Z,4.90
2023-01-10T04:01:25.869Z,8.75
2023-01-10T04:03:52.736Z,3.03
2023-01-10T04:06:20.202Z,4.13
2023-01-10T04:08:47.734Z,4.65
2023-01-10T04:11:14.735Z,7.07
2023-01-10T04:13:42.640Z,4.18
2023-01-10T04:16:10.420Z,4.80
2023-01-10T04:18:37.210Z,6.47
2023-01-10T04:21:04.333Z,5.75
2023-01-10T04:23:31.080Z,5.07
2023-01-10T04:25:58.173Z,6.25
2023-01-10T04:28:25.926Z,5.50
2023-01-10T04:30:53.732Z,6.68
2023-01-10T04:33:20.938Z,8.70
2023-01-10T04:35:52.685Z,7.47
2023-01-10T04:38:20.543Z,5.75
2023-01-10T04:40:58.500Z,6.00
2023-01-10T04:43:25.785Z,7.50
2023-01-10T04:45:53.068Z,5.53
2023-01-10T04:48:20.012Z,7.90
2023-01-10T04:50:51.743Z,5.80
2023-01-10T04:53:19.731Z,3.47
2023-01-10T04:55:47.286Z,5.43
2023-01-10T04:58:14.182Z,4.30
2023-01-10T05:00:41.655Z,3.90
2023-01-10T05:03:08.629Z,5.95
2023-01-10T05:05:35.660Z,6.75
2023-01-10T05:08:02.525Z,4.18
2023-01-10T05:10:30.654Z,5.18
2023-01-10T05:12:57.442Z,7.65
2023-01-10T05:15:24.285Z,4.03
2023-01-10T05:17:58.865Z,4.68
2023-01-10T05:20:25.819Z,6.05
2023-01-10T05:22:52.836Z,7.07
2023-01-10T05:25:19.635Z,5.30
2023-01-10T05:27:46.413Z,5.72
2023-01-10T05:30:15.019Z,5.45
2023-01-10T05:32:41.823Z,3.15
2023-01-10T05:35:09.250Z,3.38
2023-01-10T05:37:38.127Z,4.60
2023-01-10T05:40:06.073Z,4.18
2023-01-10T05:42:33.215Z,6.70
2023-01-10T05:45:00.620Z,6.90
2023-01-10T05:47:27.388Z,4.53
2023-01-10T05:49:54.216Z,6.22
2023-01-10T05:52:21.040Z,5.32
2023-01-10T05:54:48.320Z,4.78
2023-01-10T05:57:15.159Z,4.05
2023-01-10T05:59:43.158Z,5.05
2023-01-10T06:02:10.163Z,4.35
2023-01-10T06:04:37.860Z,3.75
2023-01-10T06:07:05.883Z,7.72
2023-01-10T06:09:33.854Z,3.67
2023-01-10T06:12:00.643Z,4.05
2023-01-10T06:14:27.681Z,4.30
2023-01-10T06:16:55.216Z,6.63
2023-01-10T06:19:24.047Z,7.97
2023-01-10T06:21:51.441Z,6.60
2023-01-10T06:24:18.551Z,5.10
2023-01-10T06:26:45.375Z,8.77
2023-01-10T06:29:14.125Z,7.38
2023-01-10T06:31:42.146Z,6.60
2023-01-10T06:34:08.943Z,6.10
2023-01-10T06:36:35.892Z,6.07
2023-01-10T06:39:02.998Z,8.75
2023-01-10T06:41:31.759Z,8.55
2023-01-10T06:43:58.749Z,7.55
2023-01-10T06:46:26.177Z,7.00
2023-01-10T06:48:53.575Z,7.53
2023-01-10T06:51:20.546Z,6.28
2023-01-10T06:53:47.607Z,6.28
2023-01-10T06:56:14.983Z,9.65
2023-01-10T06:58:43.003Z,9.02
2023-01-10T07:01:19.696Z,9.85
2023-01-10T07:03:47.436Z,6.05
2023-01-10T07:06:14.797Z,9.23
2023-01-10T07:08:45.836Z,5.28
2023-01-10T07:11:14.821Z,8.60
2023-01-10T07:13:41.815Z,7.90
2023-01-10T07:16:12.440Z,6.85
2023-01-10T07:18:41.520Z,5.82
2023-01-10T07:21:10.181Z,6.78
2023-01-10T07:23:38.451Z,9.07
2023-01-10T07:26:12.243Z,8.43
2023-01-10T07:28:39.211Z,7.40
2023-01-10T07:31:06.540Z,7.93
2023-01-10T07:33:33.465Z,9.80
2023-01-10T07:36:02.052Z,8.35
2023-01-10T07:38:30.567Z,9.07
2023-01-10T07:40:58.131Z,9.15
2023-01-10T07:43:25.580Z,10.68
2023-01-10T07:45:53.055Z,9.88
2023-01-10T07:48:20.666Z,6.57
2023-01-10T07:50:47.479Z,8.48
2023-01-10T07:53:14.324Z,10.95
2023-01-10T07:55:41.436Z,7.47
2023-01-10T07:58:09.349Z,9.27
2023-01-10T08:00:38.182Z,7.85
2023-01-10T08:03:07.255Z,8.30
2023-01-10T08:05:35.111Z,8.48
2023-01-10T08:08:10.249Z,9.32
2023-01-10T08:10:40.834Z,11.43
2023-01-10T08:13:18.532Z,8.48
2023-01-10T08:15:47.269Z,8.40
2023-01-10T08:18:15.716Z,6.95
2023-01-10T08:20:43.636Z,9.27
2023-01-10T08:23:11.382Z,7.68
2023-01-10T08:25:39.573Z,8.77
2023-01-10T08:28:07.960Z,11.43
2023-01-10T08:30:35.293Z,9.00
2023-01-10T08:33:04.272Z,8.80
2023-01-10T08:35:37.133Z,9.50
2023-01-10T08:38:05.069Z,9.75
2023-01-10T08:40:33.988Z,9.27
2023-01-10T08:43:05.549Z,8.88
2023-01-10T08:45:33.143Z,6.63
2023-01-10T08:48:00.148Z,9.45
2023-01-10T08:50:27.692Z,7.35
2023-01-10T08:52:59.575Z,7.90
2023-01-10T08:55:32.451Z,6.90
2023-01-10T08:58:00.629Z,11.38
2023-01-10T09:00:30.345Z,7.75
2023-01-10T09:02:59.250Z,7.78
2023-01-10T09:05:27.695Z,6.80
2023-01-10T09:08:02.156Z,9.25
2023-01-10T09:10:31.026Z,8.23
2023-01-10T09:13:01.443Z,6.55
2023-01-10T09:15:35.262Z,5.68
2023-01-10T09:18:07.363Z,7.20
2023-01-10T09:20:40.689Z,8.00
2023-01-10T09:23:11.055Z,6.07
2023-01-10T09:25:40.900Z,6.82
2023-01-10T09:28:08.444Z,10.38
2023-01-10T09:30:37.362Z,8.35
2023-01-10T09:33:06.283Z,6.72
2023-01-10T09:35:37.195Z,7.35
2023-01-10T09:38:07.043Z,7.38
2023-01-10T09:41:02.721Z,6.03
2023-01-10T09:44:06.818Z,7.30
2023-01-10T09:47:22.023Z,5.45
2023-01-10T09:49:52.656Z,8.02
2023-01-10T09:52:31.410Z,6.88
2023-01-10T09:55:16.104Z,7.43
2023-01-10T09:57:45.483Z,9.15
2023-01-10T10:00:21.420Z,7.38
2023-01-10T10:02:57.351Z,5.72
2023-01-10T10:05:29.246Z,6.75
2023-01-10T10:08:02.883Z,7.45
2023-01-10T10:10:41.870Z,7.25
2023-01-10T10:13:47.983Z,8.73
2023-01-10T10:16:44.890Z,5.68
2023-01-10T10:19:15.548Z,6.18
2023-01-10T10:22:13.704Z,5.53
2023-01-10T10:24:53.587Z,5.78
2023-01-10T10:27:36.527Z,8.48
2023-01-10T10:30:33.702Z,7.78
2023-01-10T10:33:19.378Z,9.52
2023-01-10T10:35:56.090Z,8.52
2023-01-10T10:38:36.140Z,6.03
2023-01-10T10:41:06.016Z,6.75
2023-01-10T10:43:39.023Z,8.25
2023-01-10T10:49:11.787Z,7.93
2023-01-10T10:51:52.398Z,7.60
2023-01-10T10:54:19.607Z,10.00
2023-01-10T10:56:49.558Z,6.95
2023-01-10T10:59:21.085Z,5.28
2023-01-10T11:01:51.478Z,5.75
2023-01-10T11:04:23.816Z,5.25
2023-01-10T11:06:52.272Z,5.80
2023-01-10T11:09:43.081Z,3.60
2023-01-10T11:12:17.098Z,6.80
2023-01-10T11:17:25.923Z,8.75
2023-01-10T11:20:08.769Z,8.07
2023-01-10T11:22:54.671Z,5.80
2023-01-10T11:25:24.686Z,5.32
2023-01-10T11:27:55.756Z,5.28
2023-01-10T11:30:32.513Z,6.43
2023-01-10T11:33:07.424Z,13.73
2023-01-10T11:35:42.542Z,13.05
2023-01-10T11:38:22.212Z,11.23
2023-01-10T11:40:58.178Z,6.53
2023-01-10T11:43:34.080Z,6.43
2023-01-10T11:46:16.452Z,5.40
2023-01-10T11:49:05.823Z,6.87
2023-01-10T11:51:45.406Z,6.82
2023-01-10T11:54:19.775Z,8.30
2023-01-10T11:57:23.573Z,8.40
2023-01-10T11:59:58.247Z,7.15
2023-01-10T12:02:28.632Z,10.48
2023-01-10T12:04:59.606Z,7.13
2023-01-10T12:07:30.323Z,6.78
2023-01-10T12:10:03.417Z,12.50
2023-01-10T12:12:32.671Z,11.73
2023-01-10T12:15:23.135Z,10.88
2023-01-10T12:17:50.145Z,6.47
2023-01-10T12:20:17.127Z,10.27
2023-01-10T12:22:48.682Z,6.45
2023-01-10T12:25:25.325Z,7.72
2023-01-10T12:27:54.716Z,6.20
2023-01-10T12:30:35.981Z,5.05
2023-01-10T12:33:12.366Z,6.75
2023-01-10T12:36:03.799Z,8.80
2023-01-10T12:39:26.430Z,4.00
2023-01-10T12:42:18.652Z,7.10
2023-01-10T12:44:52.584Z,7.25
2023-01-10T12:47:43.058Z,7.88
2023-01-10T12:50:33.936Z,7.40
2023-01-10T12:53:17.836Z,11.73
2023-01-10T12:55:47.262Z,5.18
2023-01-10T12:58:25.701Z,6.00
2023-01-10T13:00:58.609Z,6.43
2023-01-10T13:03:33.311Z,9.98
2023-01-10T13:06:02.990Z,11.43
2023-01-10T13:08:34.854Z,6.28
2023-01-10T13:11:06.261Z,12.02
2023-01-10T13:13:42.990Z,12.52
2023-01-10T13:16:27.931Z,5.53
2023-01-10T13:19:14.965Z,10.98
2023-01-10T13:21:43.857Z,8.32
2023-01-10T13:24:23.638Z,21.35
2023-01-10T13:26:51.949Z,9.63
2023-01-10T13:29:38.385Z,10.32
2023-01-10T13:32:23.019Z,15.25
2023-01-10T13:34:52.092Z,10.13
2023-01-10T13:37:33.417Z,11.93
2023-01-10T13:40:02.268Z,10.27
2023-01-10T13:42:55.930Z,11.10
2023-01-10T13:45:28.387Z,13.02
2023-01-10T13:47:55.839Z,14.52
2023-01-10T13:50:22.949Z,18.10
2023-01-10T13:52:52.917Z,17.25
2023-01-10T13:55:34.823Z,12.82
2023-01-10T13:58:08.610Z,15.68
2023-01-10T14:00:54.577Z,13.23
2023-01-10T14:03:46.022Z,13.13
2023-01-10T14:06:41.423Z,13.13
2023-01-10T14:09:12.415Z,13.13
2023-01-10T14:11:46.881Z,16.58
2023-01-10T14:14:26.250Z,13.23
2023-01-10T14:16:57.761Z,56.70
2023-01-10T14:19:34.175Z,18.20
2023-01-10T14:22:03.173Z,18.60
2023-01-10T14:24:45.827Z,13.82
2023-01-10T14:27:20.149Z,12.07
2023-01-10T14:29:56.750Z,7.65
2023-01-10T14:32:44.638Z,12.23
2023-01-10T14:35:20.568Z,11.65
2023-01-10T14:38:03.544Z,9.85
2023-01-10T14:40:45.425Z,5.68
2023-01-10T14:43:25.540Z,14.02
2023-01-10T14:46:02.104Z,13.10
2023-01-10T14:48:42.068Z,11.70
2023-01-10T14:51:23.571Z,12.02
2023-01-10T14:54:14.776Z,11.27
2023-01-10T14:56:51.859Z,16.73
2023-01-10T14:59:34.727Z,11.60
2023-01-10T15:02:14.773Z,15.50
2023-01-10T15:04:56.751Z,10.65
2023-01-10T15:07:27.085Z,10.95
2023-01-10T15:09:58.241Z,10.77
2023-01-10T15:12:28.956Z,13.80
2023-01-10T15:15:24.197Z,12.07
2023-01-10T15:17:51.760Z,10.30
2023-01-10T15:20:21.110Z,8.50
2023-01-10T15:22:55.997Z,9.55
2023-01-10T15:25:39.441Z,11.23
2023-01-10T15:28:15.914Z,18.90
2023-01-10T15:30:44.136Z,8.07
2023-01-10T15:33:19.661Z,8.50
2023-01-10T15:35:47.622Z,13.07
2023-01-10T15:38:21.537Z,9.70
2023-01-10T15:41:03.032Z,9.90
2023-01-10T15:43:36.519Z,9.95
2023-01-10T15:46:06.289Z,9.18
2023-01-10T15:48:43.686Z,13.70
2023-01-10T15:51:30.963Z,10.73
2023-01-10T15:54:04.115Z,14.40
2023-01-10T15:56:40.952Z,14.90
2023-01-10T15:59:39.297Z,10.38
2023-01-10T16:02:22.742Z,10.07
2023-01-10T16:04:55.688Z,66.63
2023-01-10T16:07:31.553Z,62.72
2023-01-10T16:10:20.515Z,86.65
2023-01-10T16:13:06.879Z,40.17
2023-01-10T16:15:42.308Z,37.88
2023-01-10T16:18:10.247Z,32.53
2023-01-10T16:20:48.156Z,45.65
2023-01-10T16:23:22.411Z,34.78
2023-01-10T16:26:00.024Z,28.75
2023-01-10T16:28:32.962Z,18.95
2023-01-10T16:31:00.792Z,18.30
2023-01-10T16:33:29.674Z,20.48
2023-01-10T16:35:59.602Z,18.58
2023-01-10T16:38:29.334Z,34.95
2023-01-10T16:41:23.469Z,29.60
2023-01-10T16:43:51.416Z,14.98
2023-01-10T16:46:18.438Z,19.27
2023-01-10T16:48:48.222Z,14.27
2023-01-10T16:51:18.752Z,15.52
2023-01-10T16:53:47.103Z,15.07
2023-01-10T16:56:18.704Z,15.32
2023-01-10T16:58:48.659Z,13.70
2023-01-10T17:01:20.413Z,20.15
2023-01-10T17:03:47.846Z,22.88
2023-01-10T17:06:16.775Z,18.52
2023-01-10T17:08:44.887Z,19.83
2023-01-10T17:11:21.739Z,22.27
2023-01-10T17:13:51.048Z,25.17
2023-01-10T17:16:19.749Z,43.17
2023-01-10T17:18:47.622Z,88.30
2023-01-10T17:21:24.613Z,59.60
2023-01-10T17:23:51.484Z,55.75
2023-01-10T17:26:19.874Z,80.43
2023-01-10T17:28:49.345Z,28.55
2023-01-10T17:31:20.328Z,112.45
2023-01-10T17:33:49.087Z,26.63
2023-01-10T17:36:18.912Z,24.08
2023-01-10T17:38:46.099Z,64.07
2023-01-10T17:41:12.915Z,45.42
2023-01-10T17:43:39.905Z,21.30
2023-01-10T17:46:06.968Z,18.05
2023-01-10T17:48:34.828Z,18.23
2023-01-10T17:51:03.448Z,11.77
2023-01-10T17:53:30.433Z,18.63
2023-01-10T17:55:58.515Z,17.70
2023-01-10T17:58:25.455Z,17.73
2023-01-10T18:00:52.447Z,14.23
2023-01-10T18:05:59.098Z,15.30
2023-01-10T18:08:29.351Z,11.75
2023-01-10T18:11:01.126Z,10.55
2023-01-10T18:13:30.387Z,9.50
2023-01-10T18:15:57.718Z,13.00
2023-01-10T18:18:26.678Z,8.93
2023-01-10T18:20:55.989Z,10.55
2023-01-10T18:23:23.428Z,8.40
2023-01-10T18:26:03.538Z,17.95
2023-01-10T18:28:42.300Z,7.13
2023-01-10T18:31:19.623Z,12.63
2023-01-10T18:33:47.776Z,5.35
2023-01-10T18:36:18.861Z,13.45
2023-01-10T18:38:46.486Z,10.75
2023-01-10T18:41:14.949Z,12.93
2023-01-10T18:43:41.808Z,14.00
2023-01-10T18:46:14.182Z,15.07
2023-01-10T18:48:41.323Z,45.35
2023-01-10T18:51:10.004Z,102.20
2023-01-10T18:53:36.915Z,88.88
2023-01-10T18:56:05.525Z,20.15
2023-01-10T18:58:36.923Z,11.90
2023-01-10T19:01:13.025Z,17.35
2023-01-10T19:03:40.376Z,17.20
2023-01-10T19:06:11.100Z,13.50
2023-01-10T19:08:42.483Z,15.10
2023-01-10T19:11:14.532Z,26.58
2023-01-10T19:13:42.865Z,35.00
2023-01-10T19:16:32.295Z,21.55
2023-01-10T19:19:09.349Z,15.23
2023-01-10T19:21:39.950Z,14.93
2023-01-10T19:24:19.891Z,51.97
2023-01-10T19:26:46.729Z,22.23
2023-01-10T19:29:13.511Z,100.90
2023-01-10T19:31:41.528Z,25.48
2023-01-10T19:34:09.415Z,16.90
2023-01-10T19:36:36.221Z,42.40
2023-01-10T19:39:05.154Z,20.30
2023-01-10T19:41:32.091Z,11.05
2023-01-10T19:44:02.859Z,7.78
2023-01-10T19:46:32.266Z,9.90
2023-01-10T19:49:03.176Z,9.80
2023-01-10T19:51:30.050Z,18.63
2023-01-10T19:53:56.974Z,43.13
2023-01-10T19:56:23.825Z,51.03
2023-01-10T19:58:51.347Z,31.85
2023-01-10T20:01:23.211Z,18.27
2023-01-10T20:03:50.321Z,16.17
2023-01-10T20:06:21.684Z,16.02
2023-01-10T20:08:49.297Z,16.58
2023-01-10T20:11:17.952Z,15.93
2023-01-10T20:13:45.352Z,14.93
2023-01-10T20:16:14.951Z,15.73
2023-01-10T20:18:42.648Z,10.68
2023-01-10T20:21:12.068Z,14.45
2023-01-10T20:23:40.507Z,13.15
2023-01-10T20:26:12.888Z,11.48
2023-01-10T20:28:40.706Z,10.35
2023-01-10T20:31:10.045Z,17.23
2023-01-10T20:33:36.938Z,14.10
2023-01-10T20:36:07.492Z,13.50
2023-01-10T20:38:36.450Z,15.45
2023-01-10T20:41:13.586Z,7.60
2023-01-10T20:43:41.154Z,14.43
2023-01-10T20:46:18.433Z,14.40
2023-01-10T20:48:46.332Z,11.07
2023-01-10T20:51:23.307Z,11.20
2023-01-10T20:53:50.997Z,11.65
2023-01-10T20:56:22.008Z,6.85
2023-01-10T20:58:50.004Z,12.02
2023-01-10T21:01:28.883Z,18.35
2023-01-10T21:04:00.874Z,11.45
2023-01-10T21:06:28.033Z,11.00
2023-01-10T21:08:55.061Z,12.13
2023-01-10T21:11:21.930Z,12.93
2023-01-10T21:13:48.812Z,11.18
2023-01-10T21:16:19.831Z,13.10
2023-01-10T21:18:46.784Z,12.23
2023-01-10T21:21:17.977Z,14.63
2023-01-10T21:23:44.793Z,15.02
2023-01-10T21:26:15.161Z,16.55
2023-01-10T21:28:48.246Z,9.95
2023-01-10T21:31:21.088Z,9.30
2023-01-10T21:33:49.427Z,14.80
2023-01-10T21:36:17.535Z,15.80
2023-01-10T21:38:44.970Z,8.00
2023-01-10T21:41:38.890Z,11.30
2023-01-10T21:44:07.294Z,11.68
2023-01-10T21:46:34.255Z,10.98
2023-01-10T21:49:02.525Z,13.93
2023-01-10T21:51:29.557Z,14.10
2023-01-10T21:53:56.417Z,14.43
2023-01-10T21:56:23.290Z,14.07
2023-01-10T21:58:50.169Z,15.88
2023-01-10T22:01:17.059Z,12.57
2023-01-10T22:03:45.998Z,10.40
2023-01-10T22:06:13.649Z,19.45
2023-01-10T22:08:40.969Z,12.10
2023-01-10T22:11:10.533Z,10.00
2023-01-10T22:13:38.500Z,10.65
2023-01-10T22:16:05.545Z,11.95
2023-01-10T22:18:32.869Z,11.82
2023-01-10T22:20:59.989Z,10.85
2023-01-10T22:23:30.224Z,15.45
2023-01-10T22:26:08.092Z,12.65
2023-01-10T22:28:35.228Z,16.05
2023-01-10T22:31:02.758Z,14.68
2023-01-10T22:33:32.412Z,14.38
2023-01-10T22:36:06.851Z,9.77
2023-01-10T22:38:34.083Z,13.25
2023-01-10T22:41:26.736Z,11.77
2023-01-10T22:43:55.612Z,11.32
2023-01-10T22:46:23.362Z,11.15
2023-01-10T22:48:50.417Z,12.98
2023-01-10T22:51:19.247Z,13.10
2023-01-10T22:53:59.015Z,8.48
2023-01-10T22:56:26.172Z,9.48
2023-01-10T22:58:53.160Z,10.35
2023-01-10T23:01:22.077Z,9.13
2023-01-10T23:03:49.599Z,11.63
2023-01-10T23:06:18.446Z,13.30
2023-01-10T23:08:45.894Z,11.68
2023-01-10T23:11:16.638Z,8.68
2023-01-10T23:13:44.489Z,12.10
2023-01-10T23:16:22.241Z,6.45
2023-01-10T23:18:49.675Z,11.00
2023-01-10T23:21:17.051Z,16.00
2023-01-10T23:23:43.923Z,8.98
2023-01-10T23:26:12.619Z,11.13
2023-01-10T23:28:44.943Z,13.35
2023-01-10T23:31:11.873Z,9.10
2023-01-10T23:33:38.784Z,13.45
2023-01-10T23:36:06.117Z,12.80
2023-01-10T23:38:33.016Z,13.45
2023-01-10T23:41:00.040Z,10.60
2023-01-10T23:43:26.997Z,9.68
2023-01-10T23:45:53.858Z,9.15
2023-01-10T23:48:20.817Z,10.18
2023-01-10T23:50:48.986Z,10.30
2023-01-10T23:53:16.480Z,14.05
2023-01-10T23:55:43.378Z,13.23
2023-01-10T23:58:10.192Z,8.68
